Time;durP1;ratioP1;P1;durP2;ratioP2;P2;SDS_P1;SDS_P2;PMS_P1;PMS_P2;Temp;Humidity;BMP_temperature;BMP_pressure;BME280_temperature;BME280_humidity;BME280_pressure;Samples;Min_cycle;Max_cycle;Signal;HPM_P1;HPM_P2
2022/04/27 00:00:19;;;;;;;2.75;1.80;;;;;;;14.46;73.73;94974.91;5083843;28;20836;-72
2022/04/27 00:02:46;;;;;;;4.05;1.88;;;;;;;14.54;73.32;94977.91;5085053;28;20205;-72
2022/04/27 00:05:15;;;;;;;1.90;1.80;;;;;;;14.27;74.25;94975.78;5084487;28;20282;-74
2022/04/27 00:07:51;;;;;;;2.17;2.05;;;;;;;14.15;75.14;94976.38;5084394;28;20801;-75
2022/04/27 00:10:19;;;;;;;3.35;1.98;;;;;;;14.22;74.97;94982.03;5083156;28;20297;-72
2022/04/27 00:12:46;;;;;;;5.55;1.73;;;;;;;14.14;74.52;94977.28;5083772;28;20225;-72
2022/04/27 00:15:13;;;;;;;3.50;2.38;;;;;;;14.11;74.96;94979.97;5084431;28;20261;-73
2022/04/27 00:17:40;;;;;;;1.58;1.48;;;;;;;14.07;75.39;94972.56;5082988;28;20224;-71
2022/04/27 00:20:08;;;;;;;2.13;1.85;;;;;;;13.89;75.68;94980.19;5083267;28;20246;-74
2022/04/27 00:22:37;;;;;;;1.80;1.70;;;;;;;14.08;75.47;94979.31;5079745;28;20307;-74
2022/04/27 00:25:05;;;;;;;5.00;1.88;;;;;;;14.29;74.69;94984.22;5084006;28;20228;-74
2022/04/27 00:27:32;;;;;;;3.90;1.92;;;;;;;14.26;74.04;94984.38;5082348;28;20239;-73
2022/04/27 00:30:00;;;;;;;2.70;2.17;;;;;;;14.20;75.11;94979.53;5084710;28;20248;-72
2022/04/27 00:32:27;;;;;;;2.22;2.13;;;;;;;14.41;74.49;94984.53;5083018;28;20229;-73
2022/04/27 00:34:53;;;;;;;2.13;2.03;;;;;;;14.86;71.78;94979.63;5081577;28;20796;-72
2022/04/27 00:37:20;;;;;;;4.60;1.67;;;;;;;14.98;71.17;94984.13;5082489;28;20239;-73
2022/04/27 00:39:48;;;;;;;2.58;2.33;;;;;;;14.62;72.83;94986.84;5080848;28;20849;-72
2022/04/27 00:42:17;;;;;;;3.97;2.42;;;;;;;14.45;73.30;94980.91;5082868;28;20236;-71
2022/04/27 00:44:45;;;;;;;2.15;2.05;;;;;;;14.18;74.64;94986.47;5084545;28;20577;-72
2022/04/27 00:47:13;;;;;;;3.40;2.60;;;;;;;14.15;74.95;94991.72;5080081;28;20221;-72
2022/04/27 00:49:42;;;;;;;2.60;2.42;;;;;;;14.23;74.71;94986.25;5080211;28;20300;-72
2022/04/27 00:52:12;;;;;;;2.35;2.25;;;;;;;14.56;73.74;94986.34;5082163;28;20364;-74
2022/04/27 00:54:40;;;;;;;3.28;2.58;;;;;;;14.39;73.56;94983.75;5082365;28;20306;-74
2022/04/27 00:57:08;;;;;;;3.90;2.10;;;;;;;14.53;73.67;94986.50;5082478;28;20665;-73
2022/04/27 00:59:35;;;;;;;4.03;2.08;;;;;;;14.36;73.98;94984.72;5082656;28;20247;-73
2022/04/27 01:02:03;;;;;;;2.30;2.00;;;;;;;14.16;75.03;94987.44;5081870;28;20304;-74
2022/04/27 01:04:31;;;;;;;2.20;2.10;;;;;;;14.46;73.37;94985.97;5081213;28;20335;-74
2022/04/27 01:06:57;;;;;;;3.00;2.40;;;;;;;14.27;73.19;94991.13;5082451;28;20703;-73
2022/04/27 01:09:25;;;;;;;3.42;3.10;;;;;;;13.97;73.78;94982.38;5082103;28;20274;-71
2022/04/27 01:11:53;;;;;;;2.90;2.17;;;;;;;14.00;74.03;94982.25;5081777;28;20211;-72
2022/04/27 01:14:21;;;;;;;4.30;2.55;;;;;;;14.02;73.82;94980.44;5081083;28;20255;-72
2022/04/27 01:16:52;;;;;;;2.63;2.42;;;;;;;14.25;72.56;94990.38;5081511;28;20630;-74
2022/04/27 01:19:18;;;;;;;4.65;2.72;;;;;;;14.13;72.41;94980.72;5082180;28;20204;-72
2022/04/27 01:21:48;;;;;;;3.67;3.03;;;;;;;14.18;72.84;94976.22;5081867;28;20792;-71
2022/04/27 01:24:20;;;;;;;6.43;2.85;;;;;;;14.31;72.12;94981.59;5081078;28;20237;-72
2022/04/27 01:26:47;;;;;;;7.40;3.33;;;;;;;14.30;72.00;94980.75;5082641;28;20207;-72
2022/04/27 01:29:16;;;;;;;5.05;3.13;;;;;;;14.18;71.80;94978.78;5080966;28;20228;-72
2022/04/27 01:31:43;;;;;;;3.60;3.40;;;;;;;14.08;72.29;94979.31;5081956;28;20205;-73
2022/04/27 01:34:10;;;;;;;3.88;2.75;;;;;;;14.19;72.81;94979.63;5081214;28;20233;-72
2022/04/27 01:36:37;;;;;;;3.70;3.47;;;;;;;14.36;71.92;94973.66;5081269;28;20205;-72
2022/04/27 01:39:05;;;;;;;4.53;3.10;;;;;;;14.37;72.47;94980.44;5081965;28;20229;-74
2022/04/27 01:41:32;;;;;;;3.75;2.95;;;;;;;14.27;72.44;94983.47;5081500;28;20237;-75
2022/04/27 01:43:59;;;;;;;3.97;2.42;;;;;;;14.24;72.29;94978.50;5081590;28;20220;-72
2022/04/27 01:46:26;;;;;;;4.70;3.28;;;;;;;14.15;72.80;94981.50;5082502;28;20205;-73
2022/04/27 01:48:53;;;;;;;3.50;2.97;;;;;;;14.03;73.16;94981.28;5081576;28;20223;-72
2022/04/27 01:54:14;;;;;;;6.13;3.53;;;;;;;13.77;73.48;94974.84;5081825;28;20259;-72
2022/04/27 01:54:17;;;;;;;4.93;3.72;;;;;;;13.70;73.71;94973.47;5080339;28;20228;-71
2022/04/27 01:56:43;;;;;;;6.65;3.60;;;;;;;13.55;73.48;94978.41;5080826;28;20197;-74
2022/04/27 01:59:11;;;;;;;8.35;3.75;;;;;;;13.56;73.55;94980.06;5080577;28;20756;-72
2022/04/27 02:01:37;;;;;;;4.80;3.40;;;;;;;13.69;73.02;94974.38;5082833;28;20196;-73
2022/04/27 02:04:04;;;;;;;3.45;3.17;;;;;;;13.94;72.59;94973.13;5080310;28;20239;-74
2022/04/27 02:06:35;;;;;;;3.58;2.55;;;;;;;14.05;71.77;94972.63;5081183;28;20234;-72
2022/04/27 02:09:01;;;;;;;5.68;3.80;;;;;;;13.82;71.76;94962.69;5080128;28;20201;-72
2022/04/27 02:11:29;;;;;;;3.90;3.53;;;;;;;14.01;71.50;94977.97;5081434;28;20258;-74
2022/04/27 02:13:56;;;;;;;3.45;2.95;;;;;;;14.16;70.77;94972.09;5080352;28;20256;-74
2022/04/27 02:16:23;;;;;;;6.03;3.55;;;;;;;14.51;69.72;94973.78;5080599;28;20229;-72
2022/04/27 02:18:50;;;;;;;6.85;3.85;;;;;;;14.44;69.26;94977.53;5080662;28;20217;-73
2022/04/27 02:21:17;;;;;;;5.53;3.72;;;;;;;13.99;71.13;94972.91;5081329;28;20657;-71
2022/04/27 02:23:44;;;;;;;7.25;3.88;;;;;;;14.19;70.38;94977.06;5081007;28;20241;-72
2022/04/27 02:26:11;;;;;;;4.13;3.55;;;;;;;14.04;70.58;94973.53;5081440;28;20228;-72
2022/04/27 02:28:40;;;;;;;5.15;3.35;;;;;;;14.07;70.68;94978.50;5081028;28;20193;-72
2022/04/27 02:31:07;;;;;;;3.78;3.33;;;;;;;14.12;70.44;94976.53;5082098;28;20205;-71
2022/04/27 02:33:33;;;;;;;3.70;2.85;;;;;;;14.04;71.04;94977.81;5080998;28;20325;-72
2022/04/27 02:36:00;;;;;;;4.60;3.25;;;;;;;13.89;71.11;94982.75;5080469;28;20575;-73
2022/04/27 02:38:27;;;;;;;5.00;4.05;;;;;;;13.74;71.58;94980.09;5079494;28;20443;-73
2022/04/27 02:40:55;;;;;;;5.28;3.50;;;;;;;13.81;71.60;94974.63;5081551;28;20205;-74
2022/04/27 02:43:22;;;;;;;3.90;3.60;;;;;;;14.01;70.66;94973.69;5080496;28;20216;-74
2022/04/27 02:45:50;;;;;;;8.27;4.95;;;;;;;13.75;71.15;94972.38;5081305;28;20197;-72
2022/04/27 02:48:17;;;;;;;6.68;3.17;;;;;;;14.00;70.55;94977.13;5081073;28;20192;-72
2022/04/27 02:53:28;;;;;;;4.82;3.40;;;;;;;13.77;70.89;94974.84;5084621;28;20313;-73
2022/04/27 02:55:55;;;;;;;3.90;3.60;;;;;;;13.88;70.76;94973.44;5085249;28;20204;-73
2022/04/27 02:58:21;;;;;;;6.88;3.72;;;;;;;13.86;70.07;94975.22;5084831;28;20238;-71
2022/04/27 03:00:50;;;;;;;5.85;4.20;;;;;;;13.28;72.21;94977.13;5082491;28;20432;-71
2022/04/27 03:03:17;;;;;;;6.45;3.58;;;;;;;13.31;72.37;94979.53;5082591;28;20198;-72
2022/04/27 03:05:44;;;;;;;3.85;3.55;;;;;;;13.43;72.30;94981.50;5082704;28;20724;-73
2022/04/27 03:08:11;;;;;;;6.70;3.75;;;;;;;13.64;71.31;94964.38;5082026;28;20203;-71
2022/04/27 03:10:38;;;;;;;4.20;3.63;;;;;;;13.63;70.87;94973.75;5081462;27;20212;-71
2022/04/27 03:13:04;;;;;;;7.93;4.07;;;;;;;13.51;71.45;94982.00;5082081;28;20233;-72
2022/04/27 03:15:33;;;;;;;9.00;3.53;;;;;;;13.30;71.63;94980.44;5081342;28;20208;-73
2022/04/27 03:18:20;;;;;;;4.55;3.97;;;;;;;13.25;71.92;94988.28;5081662;28;20225;-72
2022/04/27 03:20:48;;;;;;;4.13;3.70;;;;;;;13.48;71.40;94992.34;5082666;28;20201;-71
2022/04/27 03:23:15;;;;;;;5.57;3.92;;;;;;;13.39;71.44;94984.28;5083466;28;20201;-71
2022/04/27 03:25:42;;;;;;;4.78;4.30;;;;;;;13.18;71.92;94991.19;5080933;28;20216;-73
2022/04/27 03:28:09;;;;;;;6.45;4.00;;;;;;;13.44;71.41;94988.28;5080366;28;20317;-72
2022/04/27 03:30:36;;;;;;;4.03;3.72;;;;;;;13.25;71.68;94997.69;5081832;28;20623;-72
2022/04/27 03:33:04;;;;;;;4.50;4.10;;;;;;;13.51;71.20;95001.59;5082085;28;20201;-71
2022/04/27 03:35:31;;;;;;;7.82;4.80;;;;;;;13.44;71.07;94998.50;5083734;28;20197;-71
2022/04/27 03:37:58;;;;;;;7.78;4.18;;;;;;;13.58;70.54;95000.44;5083377;28;20207;-71
2022/04/27 03:40:25;;;;;;;6.25;4.82;;;;;;;13.66;69.97;95007.72;5081917;28;20710;-75
2022/04/27 03:42:52;;;;;;;4.55;4.15;;;;;;;13.16;71.69;95004.00;5082685;28;20200;-75
2022/04/27 03:45:20;;;;;;;5.18;4.15;;;;;;;12.84;73.57;95010.50;5086969;28;20205;-72
2022/04/27 03:47:46;;;;;;;6.63;4.15;;;;;;;12.81;73.56;95005.53;5085238;28;20692;-73
2022/04/27 03:50:15;;;;;;;7.60;4.68;;;;;;;13.17;72.41;95008.22;5083866;28;21178;-72
2022/04/27 03:52:42;;;;;;;19.95;11.07;;;;;;;13.06;72.71;95017.22;5083878;28;20250;-72
2022/04/27 03:55:09;;;;;;;11.70;8.77;;;;;;;13.12;72.67;95019.47;5081405;28;20233;-72
2022/04/27 03:57:37;;;;;;;15.60;7.85;;;;;;;13.15;72.67;95016.78;5082711;28;20507;-73
2022/04/27 04:00:04;;;;;;;9.93;6.32;;;;;;;13.00;73.53;95027.69;5081491;28;20717;-74
2022/04/27 04:02:31;;;;;;;7.15;4.53;;;;;;;12.97;73.15;95013.34;5082643;28;20594;-72
2022/04/27 04:04:58;;;;;;;10.13;5.97;;;;;;;12.93;73.24;95029.66;5082907;28;20248;-70
2022/04/27 04:07:26;;;;;;;50.40;27.92;;;;;;;12.95;73.72;95031.25;5084231;28;20239;-72
2022/04/27 04:09:53;;;;;;;21.67;12.63;;;;;;;13.06;73.26;95035.09;5082305;28;20738;-72
2022/04/27 04:12:19;;;;;;;7.68;6.88;;;;;;;13.31;72.55;95035.69;5082926;28;20630;-72
2022/04/27 04:14:46;;;;;;;10.80;5.72;;;;;;;13.73;71.23;95032.06;5082545;28;20315;-71
2022/04/27 04:17:13;;;;;;;7.18;4.65;;;;;;;14.51;68.92;95044.53;5083245;28;20205;-71
2022/04/27 04:19:39;;;;;;;7.28;4.43;;;;;;;15.25;65.38;95051.00;5081903;28;20236;-72
2022/04/27 04:22:06;;;;;;;4.70;4.07;;;;;;;15.89;63.72;95044.19;5080406;28;20216;-72
2022/04/27 04:24:34;;;;;;;5.97;3.75;;;;;;;16.18;62.03;95050.28;5081865;28;20339;-72
2022/04/27 04:29:45;;;;;;;6.18;4.00;;;;;;;16.81;59.82;95042.47;5083223;28;20725;-74
2022/04/27 04:32:12;;;;;;;9.65;4.03;;;;;;;17.05;59.15;95047.91;5081729;28;20200;-73
2022/04/27 04:34:39;;;;;;;10.88;8.70;;;;;;;17.34;57.94;95045.22;5082975;28;20728;-72
2022/04/27 04:37:06;;;;;;;28.20;17.00;;;;;;;17.26;58.14;95047.44;5081978;28;20197;-72
2022/04/27 04:39:34;;;;;;;12.38;8.38;;;;;;;17.63;57.07;95055.47;5082770;28;20437;-72
2022/04/27 04:42:01;;;;;;;7.75;5.82;;;;;;;18.12;55.45;95058.44;5082858;28;20692;-72
2022/04/27 04:44:27;;;;;;;6.35;4.80;;;;;;;18.43;54.46;95041.88;5082115;28;20278;-73
2022/04/27 04:46:54;;;;;;;7.88;4.40;;;;;;;18.74;53.73;95061.31;5081661;28;20645;-71
2022/04/27 04:49:21;;;;;;;9.38;3.80;;;;;;;18.81;53.69;95061.72;5082018;28;20281;-72
2022/04/27 04:51:47;;;;;;;10.15;3.92;;;;;;;18.57;53.79;95061.56;5081825;28;20232;-70
2022/04/27 04:54:14;;;;;;;12.45;9.48;;;;;;;19.00;53.19;95060.44;5081463;28;20275;-74
2022/04/27 04:56:42;;;;;;;7.93;7.18;;;;;;;19.55;51.12;95056.72;5080968;28;20236;-71
2022/04/27 04:59:09;;;;;;;11.88;6.82;;;;;;;19.77;50.75;95062.97;5082149;28;20259;-72
2022/04/27 05:01:35;;;;;;;8.15;5.47;;;;;;;20.15;49.43;95068.84;5081015;28;20679;-72
2022/04/27 05:04:02;;;;;;;12.93;5.18;;;;;;;20.78;48.97;95067.75;5081606;28;20261;-71
2022/04/27 05:06:29;;;;;;;4.95;4.38;;;;;;;22.50;44.76;95066.59;5081110;28;20209;-72
2022/04/27 05:08:56;;;;;;;5.82;4.40;;;;;;;24.52;40.26;95059.81;5081927;28;20849;-73
2022/04/27 05:11:22;;;;;;;11.88;4.38;;;;;;;25.50;38.26;95059.56;5080806;28;20673;-74
2022/04/27 05:13:51;;;;;;;12.27;4.85;;;;;;;27.03;35.49;95056.22;5080540;28;20201;-72
2022/04/27 05:16:17;;;;;;;7.20;5.05;;;;;;;27.36;34.76;95058.09;5080803;28;20200;-72
2022/04/27 05:18:44;;;;;;;7.13;4.60;;;;;;;29.05;31.88;95047.56;5081072;28;20284;-75
2022/04/27 05:21:11;;;;;;;5.22;3.70;;;;;;;29.94;30.91;95051.81;5081708;28;20289;-72
2022/04/27 05:23:38;;;;;;;3.60;3.20;;;;;;;29.85;30.80;95050.19;5081290;28;20581;-72
2022/04/27 05:26:05;;;;;;;4.55;3.20;;;;;;;31.13;29.01;95052.28;5081143;28;20379;-75
2022/04/27 05:31:54;;;;;;;3.70;3.38;;;;;;;31.35;28.32;95050.59;5080763;28;20246;-73
2022/04/27 05:34:04;;;;;;;4.63;3.63;;;;;;;31.55;28.07;95046.47;5081814;28;20228;-74
2022/04/27 05:36:31;;;;;;;4.68;4.40;;;;;;;32.65;26.41;95047.28;5079769;28;20211;-75
2022/04/27 05:38:58;;;;;;;9.40;6.18;;;;;;;31.61;27.90;95051.00;5082022;28;20197;-73
2022/04/27 05:41:25;;;;;;;6.28;5.50;;;;;;;33.52;25.63;95049.66;5078616;28;20205;-75
2022/04/27 05:43:51;;;;;;;5.65;4.80;;;;;;;33.65;25.49;95055.03;5079745;28;20248;-74
2022/04/27 05:46:19;;;;;;;5.53;4.40;;;;;;;32.54;26.63;95060.91;5080682;28;20691;-74
2022/04/27 05:48:46;;;;;;;5.05;4.60;;;;;;;32.59;26.64;95058.53;5082404;28;20193;-74
2022/04/27 05:51:13;;;;;;;7.18;5.07;;;;;;;31.46;28.36;95058.84;5078736;28;20286;-74
2022/04/27 05:53:41;;;;;;;6.55;4.50;;;;;;;31.78;27.80;95060.34;5079315;28;20590;-75
2022/04/27 05:56:09;;;;;;;5.25;4.78;;;;;;;31.59;27.77;95053.00;5080494;28;20239;-73
2022/04/27 05:58:36;;;;;;;15.27;5.40;;;;;;;31.63;27.58;95059.53;5079659;28;20289;-74
2022/04/27 06:01:03;;;;;;;10.38;5.25;;;;;;;31.48;28.31;95055.22;5080039;28;20294;-73
2022/04/27 06:03:31;;;;;;;5.93;5.32;;;;;;;30.86;28.36;95044.94;5081115;28;20285;-72
2022/04/27 06:05:58;;;;;;;6.82;5.45;;;;;;;30.56;29.29;95064.97;5080586;28;20226;-74
2022/04/27 06:08:25;;;;;;;5.85;4.93;;;;;;;31.09;28.72;95057.03;5080572;28;20204;-73
2022/04/27 06:10:51;;;;;;;7.88;5.13;;;;;;;31.54;27.79;95065.84;5080285;28;20637;-73
2022/04/27 06:13:18;;;;;;;7.82;4.72;;;;;;;31.55;28.29;95056.97;5081719;28;20280;-73
2022/04/27 06:15:45;;;;;;;7.20;4.80;;;;;;;32.83;26.48;95052.13;5080867;28;20228;-74
2022/04/27 06:18:12;;;;;;;6.30;4.95;;;;;;;33.65;25.40;95055.03;5080649;28;20202;-73
2022/04/27 06:20:40;;;;;;;6.28;4.75;;;;;;;33.47;25.51;95052.88;5080779;28;20208;-73
2022/04/27 06:23:07;;;;;;;9.05;5.15;;;;;;;32.75;26.47;95054.88;5080428;28;20236;-75
2022/04/27 06:25:35;;;;;;;9.43;5.18;;;;;;;32.07;27.25;95054.28;5082338;28;21013;-73
2022/04/27 06:28:02;;;;;;;8.63;5.18;;;;;;;32.21;27.18;95062.34;5085428;28;20205;-73
2022/04/27 06:30:29;;;;;;;8.10;4.88;;;;;;;32.88;26.25;95055.00;5084976;28;20506;-74
2022/04/27 06:32:56;;;;;;;10.10;4.78;;;;;;;33.39;25.41;95052.22;5084345;28;20629;-72
2022/04/27 06:35:22;;;;;;;5.95;4.40;;;;;;;33.89;24.89;95058.22;5083477;28;21355;-73
2022/04/27 06:37:50;;;;;;;5.50;4.57;;;;;;;33.55;25.66;95051.09;5084728;28;20205;-73
2022/04/27 06:40:17;;;;;;;5.30;4.85;;;;;;;32.94;26.30;95051.59;5084525;28;20204;-75
2022/04/27 06:42:45;;;;;;;6.43;4.35;;;;;;;33.30;25.71;95034.91;5085707;28;20656;-74
2022/04/27 06:45:12;;;;;;;4.88;4.47;;;;;;;31.96;27.54;95059.16;5088056;28;20200;-73
2022/04/27 06:47:39;;;;;;;7.63;4.30;;;;;;;31.75;28.00;95059.91;5092864;28;20197;-73
2022/04/27 06:50:07;;;;;;;11.77;4.10;;;;;;;32.41;27.08;95052.88;5084452;28;20290;-74
2022/04/27 06:52:39;;;;;;;4.68;4.28;;;;;;;33.27;25.98;95041.38;5083834;28;20301;-74
2022/04/27 06:55:09;;;;;;;8.95;4.50;;;;;;;32.20;27.23;95050.97;5083375;28;20233;-74
2022/04/27 06:57:35;;;;;;;5.07;4.40;;;;;;;31.68;27.99;95051.91;5084894;28;20204;-74
2022/04/27 07:00:02;;;;;;;5.82;5.25;;;;;;;32.15;27.31;95042.84;5083000;28;20978;-74
2022/04/27 07:02:30;;;;;;;11.57;5.95;;;;;;;32.12;27.67;95048.47;5083759;28;20207;-73
2022/04/27 07:05:00;;;;;;;20.70;11.02;;;;;;;31.88;28.36;95048.75;5083204;28;20201;-74
2022/04/27 07:07:27;;;;;;;9.73;4.80;;;;;;;32.10;27.81;95053.91;5084833;28;20201;-74
2022/04/27 07:09:53;;;;;;;10.10;5.28;;;;;;;31.31;28.75;95051.94;5082495;28;20238;-74
2022/04/27 07:12:22;;;;;;;7.93;5.38;;;;;;;31.44;28.89;95046.88;5083778;28;20189;-74
2022/04/27 07:14:50;;;;;;;19.92;9.55;;;;;;;31.53;28.29;95048.44;5083679;28;20239;-73
2022/04/27 07:17:17;;;;;;;21.20;8.55;;;;;;;30.76;29.17;95055.66;5079963;28;20239;-74
2022/04/27 07:19:44;;;;;;;9.65;5.53;;;;;;;28.90;32.46;95047.41;5081136;28;20201;-72
2022/04/27 07:22:12;;;;;;;9.10;5.68;;;;;;;29.25;32.07;95048.03;5081402;28;20225;-73
2022/04/27 07:24:39;;;;;;;10.00;6.05;;;;;;;29.17;32.36;95046.25;5083616;28;20269;-73
2022/04/27 07:27:06;;;;;;;9.57;5.15;;;;;;;28.97;33.22;95050.97;5081986;28;20672;-75
2022/04/27 07:29:35;;;;;;;14.80;8.20;;;;;;;29.15;32.32;95044.78;5079784;28;20314;-73
2022/04/27 07:32:02;;;;;;;10.07;6.53;;;;;;;27.93;35.11;95055.81;5083185;28;20198;-73
2022/04/27 07:34:30;;;;;;;10.90;5.05;;;;;;;27.50;37.20;95048.03;5079860;28;20229;-72
2022/04/27 07:36:58;;;;;;;25.20;14.05;;;;;;;27.62;36.16;95039.84;5080860;28;20743;-72
2022/04/27 07:39:25;;;;;;;36.45;22.25;;;;;;;27.58;36.24;95051.56;5081110;28;20205;-73
2022/04/27 07:41:51;;;;;;;11.77;8.68;;;;;;;27.02;37.42;95047.56;5080236;28;20237;-74
2022/04/27 07:44:18;;;;;;;11.57;8.45;;;;;;;26.10;37.71;95052.22;5082644;28;20201;-73
2022/04/27 07:46:48;;;;;;;8.25;5.88;;;;;;;25.58;38.96;95051.88;5081071;28;20989;-75
2022/04/27 07:49:15;;;;;;;9.05;5.07;;;;;;;25.51;39.57;95045.59;5082483;28;21527;-74
2022/04/27 07:51:42;;;;;;;7.00;4.68;;;;;;;25.18;40.63;95051.31;5084061;28;20259;-74
2022/04/27 07:54:09;;;;;;;8.23;5.93;;;;;;;24.90;40.20;95045.16;5082427;28;20665;-74
2022/04/27 07:56:35;;;;;;;8.82;5.57;;;;;;;25.34;41.06;95049.75;5083681;28;20325;-73
2022/04/27 07:59:02;;;;;;;8.77;4.78;;;;;;;25.82;39.63;95040.97;5083361;28;20236;-75
2022/04/27 08:01:30;;;;;;;6.05;5.55;;;;;;;25.64;40.34;95035.72;5083017;28;20205;-74
2022/04/27 08:03:58;;;;;;;8.40;4.90;;;;;;;25.84;39.39;95039.06;5079570;28;20716;-74
2022/04/27 08:06:25;;;;;;;7.32;4.90;;;;;;;25.84;40.02;95031.25;5084204;28;20193;-74
2022/04/27 08:08:52;;;;;;;5.70;5.10;;;;;;;25.49;39.74;95037.09;5083357;28;20236;-75
2022/04/27 08:11:22;;;;;;;6.75;4.63;;;;;;;24.91;40.00;95031.22;5080341;28;20341;-74
2022/04/27 08:13:49;;;;;;;10.88;5.25;;;;;;;24.74;40.86;95040.53;5081833;28;20215;-76
2022/04/27 08:16:16;;;;;;;7.57;5.40;;;;;;;24.54;40.53;95041.47;5079807;28;20668;-74
2022/04/27 08:18:42;;;;;;;6.47;4.82;;;;;;;24.26;41.47;95040.50;5079226;28;20197;-74
2022/04/27 08:21:18;;;;;;;5.00;4.60;;;;;;;24.45;41.95;95029.34;5083026;28;20317;-76
2022/04/27 08:23:47;;;;;;;7.03;6.32;;;;;;;24.97;40.63;95031.53;5079649;28;20197;-78
2022/04/27 08:26:14;;;;;;;13.70;5.43;;;;;;;25.32;40.45;95030.06;5080781;28;20231;-74
2022/04/27 08:28:42;;;;;;;8.93;5.10;;;;;;;25.27;40.43;95027.03;5080669;28;20201;-74
2022/04/27 08:31:12;;;;;;;7.30;4.50;;;;;;;25.03;40.88;95020.53;5079383;28;20205;-73
2022/04/27 08:33:39;;;;;;;8.30;5.22;;;;;;;25.17;40.84;95018.47;5079715;28;20571;-76
2022/04/27 08:36:07;;;;;;;4.85;3.97;;;;;;;25.03;41.38;95020.53;5079101;28;20492;-75
2022/04/27 08:38:37;;;;;;;7.93;4.45;;;;;;;25.19;40.90;95019.97;5079935;28;20208;-75
2022/04/27 08:41:04;;;;;;;6.90;4.53;;;;;;;24.85;41.33;95016.16;5080983;28;20635;-77
2022/04/27 08:43:31;;;;;;;8.23;4.82;;;;;;;24.29;40.78;95019.47;5082058;28;20709;-75
2022/04/27 08:46:03;;;;;;;5.80;4.22;;;;;;;24.24;40.89;95012.09;5080659;28;20201;-75
2022/04/27 08:48:30;;;;;;;8.50;3.95;;;;;;;24.25;41.26;95007.72;5079777;28;20687;-75
2022/04/27 08:50:57;;;;;;;11.70;4.03;;;;;;;24.41;42.01;95014.00;5077154;28;20208;-75
2022/04/27 08:53:25;;;;;;;7.25;4.07;;;;;;;24.30;40.69;95011.53;5082646;28;20298;-74
2022/04/27 08:55:53;;;;;;;7.10;4.18;;;;;;;24.49;40.30;94999.53;5082252;28;20708;-76
2022/04/27 08:58:22;;;;;;;6.95;3.70;;;;;;;24.78;40.90;95005.50;5080726;28;20197;-74
2022/04/27 09:00:49;;;;;;;4.88;4.47;;;;;;;24.72;40.70;94993.91;5081933;28;20201;-74
2022/04/27 09:03:27;;;;;;;6.65;5.68;;;;;;;24.90;40.32;94993.19;5075887;28;20222;-74
2022/04/27 09:05:54;;;;;;;5.40;4.63;;;;;;;24.99;40.00;95000.19;5079176;28;20258;-74
2022/04/27 09:08:24;;;;;;;6.80;4.07;;;;;;;24.97;39.15;94994.31;5082221;28;20741;-73
2022/04/27 09:10:51;;;;;;;7.13;3.63;;;;;;;25.05;38.40;94992.63;5080753;28;20194;-73
2022/04/27 09:13:19;;;;;;;6.53;3.50;;;;;;;25.21;38.12;94991.22;5078280;28;20292;-74
2022/04/27 09:15:46;;;;;;;5.70;3.47;;;;;;;25.30;38.47;94995.56;5080547;28;20305;-75
2022/04/27 09:21:01;;;;;;;6.70;3.15;;;;;;;25.56;37.70;94982.72;5081027;28;20208;-74
2022/04/27 09:23:36;;;;;;;8.52;4.28;;;;;;;25.17;37.73;94989.88;5080391;28;20680;-74
2022/04/27 09:26:15;;;;;;;5.93;3.20;;;;;;;24.48;38.24;94977.09;5081288;28;20238;-74
2022/04/27 09:28:48;;;;;;;5.97;5.05;;;;;;;24.13;38.69;94978.44;5080985;28;20216;-76
2022/04/27 09:31:27;;;;;;;7.50;3.28;;;;;;;24.53;38.44;94975.72;5078713;28;20285;-76
2022/04/27 09:33:59;;;;;;;5.28;3.00;;;;;;;24.99;37.92;94959.38;5078183;28;20950;-74
2022/04/27 09:36:26;;;;;;;8.43;3.25;;;;;;;25.45;36.92;94973.34;5081313;28;20297;-74
2022/04/27 09:38:54;;;;;;;6.25;3.88;;;;;;;25.27;37.04;94964.63;5081465;28;20208;-76
2022/04/27 09:41:42;;;;;;;6.25;3.90;;;;;;;25.11;37.61;94964.41;5080921;28;20285;-74
2022/04/27 09:44:27;;;;;;;4.85;2.88;;;;;;;25.30;36.49;94961.75;5080457;28;20193;-73
2022/04/27 09:46:54;;;;;;;3.95;2.95;;;;;;;24.69;37.45;94954.38;5081405;28;20301;-75
2022/04/27 09:49:20;;;;;;;5.03;3.80;;;;;;;24.66;37.46;94963.25;5086205;28;20251;-73
2022/04/27 09:51:48;;;;;;;7.20;2.92;;;;;;;24.78;37.49;94963.91;5084848;28;20328;-73
2022/04/27 09:54:21;;;;;;;4.35;3.20;;;;;;;25.23;37.44;94952.91;5081200;28;20232;-72
2022/04/27 09:56:54;;;;;;;3.65;3.00;;;;;;;25.55;36.44;94948.06;5082038;28;20233;-73
2022/04/27 09:59:29;;;;;;;5.75;3.00;;;;;;;25.94;35.57;94958.28;5080891;28;20209;-73
2022/04/27 10:01:59;;;;;;;3.35;3.03;;;;;;;25.80;34.85;94950.97;5080530;28;20212;-73
2022/04/27 10:04:28;;;;;;;6.63;3.30;;;;;;;25.78;34.79;94945.91;5082025;28;20205;-76
2022/04/27 10:06:58;;;;;;;2.90;2.70;;;;;;;25.74;36.16;94950.59;5082188;28;20212;-75
2022/04/27 10:09:26;;;;;;;7.20;2.80;;;;;;;25.37;35.55;94944.59;5082115;28;20206;-74
2022/04/27 10:11:55;;;;;;;3.80;2.67;;;;;;;25.01;35.97;94944.44;5080670;28;20553;-73
2022/04/27 10:14:23;;;;;;;8.20;3.30;;;;;;;24.60;37.37;94950.00;5081915;28;20334;-74
2022/04/27 10:16:51;;;;;;;6.00;3.00;;;;;;;24.86;37.21;94945.03;5082380;28;20228;-72
2022/04/27 10:19:18;;;;;;;6.03;3.58;;;;;;;25.51;36.92;94940.69;5082108;28;20331;-73
2022/04/27 10:21:56;;;;;;;4.80;3.28;;;;;;;25.89;36.08;94935.31;5080843;28;20221;-74
2022/04/27 10:24:49;;;;;;;3.75;2.65;;;;;;;26.03;34.89;94936.56;5081599;28;20196;-75
2022/04/27 10:27:17;;;;;;;6.43;3.80;;;;;;;25.24;35.41;94941.53;5080590;28;21148;-73
2022/04/27 10:29:48;;;;;;;8.00;3.38;;;;;;;24.85;36.43;94939.00;5080685;28;20294;-72
2022/04/27 10:32:35;;;;;;;4.70;3.03;;;;;;;25.06;36.21;94923.22;5079887;28;20199;-73
2022/04/27 10:35:19;;;;;;;9.20;3.13;;;;;;;25.72;35.62;94923.91;5081792;28;20749;-76
2022/04/27 10:37:47;;;;;;;5.47;3.00;;;;;;;25.99;36.28;94922.19;5081121;28;20701;-72
2022/04/27 10:40:29;;;;;;;4.80;2.83;;;;;;;26.34;35.90;94914.41;5079751;28;20201;-75
2022/04/27 10:43:02;;;;;;;8.43;3.13;;;;;;;26.26;35.91;94919.50;5081562;28;20803;-75
2022/04/27 10:45:30;;;;;;;5.90;3.95;;;;;;;25.61;36.41;94903.25;5076759;28;20282;-74
2022/04/27 10:47:57;;;;;;;5.38;2.60;;;;;;;25.67;36.58;94904.50;5081908;28;20684;-74
2022/04/27 10:50:33;;;;;;;9.30;3.88;;;;;;;25.30;36.18;94904.50;5081318;28;20843;-73
2022/04/27 10:53:16;;;;;;;9.75;6.18;;;;;;;24.80;36.86;94897.03;5079341;28;20228;-74
2022/04/27 10:55:45;;;;;;;6.00;5.20;;;;;;;24.96;35.99;94894.69;5080228;28;20634;-74
2022/04/27 10:58:14;;;;;;;4.97;3.67;;;;;;;25.19;36.91;94882.13;5080968;28;20209;-74
2022/04/27 11:01:18;;;;;;;4.70;4.30;;;;;;;25.32;36.05;94889.59;5081303;28;20888;-75
2022/04/27 11:03:53;;;;;;;7.30;4.03;;;;;;;25.27;35.73;94882.22;5080264;28;20201;-77
2022/04/27 11:06:21;;;;;;;5.88;3.70;;;;;;;25.56;35.59;94876.84;5079744;28;20321;-76
2022/04/27 11:09:00;;;;;;;8.73;4.05;;;;;;;25.25;35.42;94883.31;5077449;28;20193;-74
2022/04/27 11:11:28;;;;;;;4.20;3.72;;;;;;;25.10;35.12;94880.38;5079170;28;20205;-75
2022/04/27 11:14:00;;;;;;;6.38;3.45;;;;;;;24.99;35.70;94868.38;5078816;28;20212;-75
2022/04/27 11:16:28;;;;;;;4.55;3.35;;;;;;;25.39;34.85;94869.84;5080736;28;20234;-74
2022/04/27 11:18:56;;;;;;;8.02;4.00;;;;;;;25.23;34.36;94861.88;5082115;28;20629;-74
2022/04/27 11:21:25;;;;;;;6.03;3.67;;;;;;;25.14;34.75;94866.13;5082986;28;20651;-74
2022/04/27 11:23:52;;;;;;;9.15;3.70;;;;;;;25.10;35.12;94859.59;5080551;28;20197;-73
2022/04/27 11:26:19;;;;;;;6.35;3.53;;;;;;;25.47;35.00;94850.91;5082649;28;20229;-76
2022/04/27 11:28:47;;;;;;;3.88;3.53;;;;;;;25.44;35.17;94849.41;5083497;28;20201;-74
2022/04/27 11:31:15;;;;;;;4.78;4.20;;;;;;;25.60;34.19;94856.56;5083744;28;20299;-74
2022/04/27 11:33:43;;;;;;;7.22;2.70;;;;;;;25.84;34.00;94848.19;5084769;28;20205;-75
2022/04/27 11:36:21;;;;;;;5.13;2.85;;;;;;;25.83;34.17;94847.38;5084886;28;20330;-74
2022/04/27 11:38:49;;;;;;;6.45;3.05;;;;;;;26.01;33.75;94840.34;5082460;28;20197;-73
2022/04/27 11:41:18;;;;;;;7.35;3.33;;;;;;;25.59;33.35;94834.91;5084241;28;20232;-75
2022/04/27 11:43:45;;;;;;;5.93;3.35;;;;;;;25.25;33.46;94847.72;5083253;28;20189;-74
2022/04/27 11:46:12;;;;;;;6.85;2.90;;;;;;;25.42;33.37;94838.31;5084536;28;20274;-73
2022/04/27 11:48:39;;;;;;;6.40;3.42;;;;;;;25.60;33.31;94836.56;5083977;28;20193;-73